Daybreak2
, South Jordan
Last Weather Update:1/30/2012 11:00:00 PM
Date
ETo
ETc
Rain
Irrigation
Req
Temp
Max
Temp
Min
Temp
Avg
Avg RH
Avg Wind
Avg Solar
inches
inches
incehs
inches
F
F
F
%
%
watts/m2
12/1/2011 0.07" 0.00" 0.00" 0.00" 38.2° 25.9° 33.2° 45.3% 14.9 MPH 88.2w/m2
12/2/2011 0.04" 0.00" 0.00" 0.00" 39.4° 22.6° 28.8° 64.9% 6.1 MPH 100.7w/m2
12/3/2011 0.04" 0.00" 0.00" 0.00" 33.0° 22.8° 27.1° 65.8% 8.6 MPH 114.2w/m2
12/4/2011 0.02" 0.00" 0.00" 0.00" 28.0° 20.9° 24.1° 71.3% 5.0 MPH 46.7w/m2
12/5/2011 0.04" 0.00" 0.00" 0.00" 24.8° 14.3° 19.1° 52.2% 6.6 MPH 115.8w/m2
12/6/2011 0.03" 0.00" 0.00" 0.00" 31.3° 13.6° 20.3° 57.1% 4.5 MPH 98.1w/m2
12/7/2011 0.04" 0.00" 0.00" 0.00" 37.4° 17.3° 24.4° 60.5% 4.1 MPH 111.0w/m2
12/8/2011 0.03" 0.00" 0.00" 0.00" 35.0° 20.4° 26.7° 67.4% 3.9 MPH 103.2w/m2
12/9/2011 0.04" 0.00" 0.00" 0.00" 42.3° 20.9° 28.3° 68.2% 4.2 MPH 106.6w/m2
12/10/2011 0.04" 0.00" 0.00" 0.00" 42.0° 21.1° 29.2° 65.3% 4.6 MPH 108.8w/m2
12/11/2011 0.04" 0.00" 0.00" 0.00" 41.8° 22.1° 30.0° 67.4% 4.3 MPH 94.4w/m2
12/12/2011 0.05" 0.00" 0.00" 0.00" 44.2° 26.8° 34.9° 52.7% 5.5 MPH 58.6w/m2
12/13/2011 0.01" 0.00" 0.04" -0.04" 33.5° 26.7° 29.3° 94.0% 3.3 MPH 31.9w/m2
12/14/2011 0.01" 0.00" 0.01" -0.01" 32.8° 22.7° 28.6° 92.9% 3.1 MPH 42.0w/m2
12/15/2011 0.02" 0.00" 0.00" 0.00" 31.5° 16.9° 23.3° 93.8% 3.4 MPH 73.9w/m2
12/16/2011 0.01" 0.00" 0.00" 0.00" 27.5° 19.7° 24.2° 91.4% 3.0 MPH 41.9w/m2
12/17/2011 0.02" 0.00" 0.01" -0.01" 33.2° 17.2° 23.6° 89.6% 3.5 MPH 99.5w/m2
12/18/2011 0.01" 0.00" 0.00" 0.00" 30.1° 21.0° 23.4° 93.6% 3.1 MPH 48.7w/m2
12/19/2011 0.01" 0.00" 0.00" 0.00" 24.5° 21.3° 23.1° 93.2% 4.2 MPH 34.9w/m2
12/20/2011 0.02" 0.00" 0.00" 0.00" 30.0° 20.8° 25.2° 85.5% 2.8 MPH 45.5w/m2
12/21/2011 0.03" 0.00" 0.00" 0.00" 31.8° 21.0° 26.0° 78.8% 6.1 MPH 73.3w/m2
12/22/2011 0.04" 0.00" 0.00" 0.00" 29.4° 19.9° 24.8° 65.0% 10.5 MPH 106.8w/m2
12/23/2011 0.04" 0.00" 0.00" 0.00" 32.7° 14.3° 22.0° 62.0% 4.6 MPH 109.0w/m2
12/24/2011 0.04" 0.00" 0.00" 0.00" 35.0° 13.7° 23.8° 60.4% 4.0 MPH 107.4w/m2
12/25/2011 0.04" 0.00" 0.00" 0.00" 41.0° 20.2° 26.9° 55.8% 5.3 MPH 106.0w/m2
12/26/2011 0.04" 0.00" 0.00" 0.00" 40.8° 19.5° 28.1° 60.7% 4.4 MPH 96.4w/m2
12/27/2011 0.04" 0.00" 0.00" 0.00" 39.4° 20.9° 29.8° 57.5% 5.1 MPH 82.9w/m2
12/28/2011 0.07" 0.00" 0.00" 0.00" 47.9° 29.8° 39.5° 36.6% 8.1 MPH 51.1w/m2
12/29/2011 0.07" 0.00" 0.00" 0.00" 52.2° 38.9° 46.2° 43.5% 7.1 MPH 38.4w/m2
12/30/2011 0.09" 0.00" 0.00" 0.00" 58.3° 38.8° 48.4° 42.7% 10.9 MPH 55.3w/m2
12/31/2011 0.06" 0.00" 0.00" 0.00" 39.0° 24.6° 31.6° 42.7% 8.5 MPH 110.3w/m2
Totals: 1.14" 0.00" 0.06" -0.06" 58.3° 13.6° 28.2° 67.0% 5.6 MPH 80.7w/m2